Time;durP1;ratioP1;P1;durP2;ratioP2;P2;SDS_P1;SDS_P2;PMS_P1;PMS_P2;Temp;Humidity;BMP_temperature;BMP_pressure;BME280_temperature;BME280_humidity;BME280_pressure;Samples;Min_cycle;Max_cycle;Signal;HPM_P1;HPM_P2
2022/09/10 00:01:42;;;;;;;1.90;1.20;;;20.50;66.40;;;;;;5052877;28;20045;-73
2022/09/10 00:04:11;;;;;;;1.50;1.10;;;20.50;66.40;;;;;;5054646;28;20382;-74
2022/09/10 00:06:38;;;;;;;1.35;1.23;;;20.50;66.40;;;;;;5053162;28;20060;-74
2022/09/10 00:09:05;;;;;;;1.90;1.20;;;20.50;66.40;;;;;;5053020;28;20508;-74
2022/09/10 00:11:31;;;;;;;1.77;1.25;;;20.50;66.40;;;;;;5052470;28;20049;-74
2022/09/10 00:13:59;;;;;;;1.98;1.30;;;20.50;66.30;;;;;;5052222;28;20413;-74
2022/09/10 00:16:26;;;;;;;1.70;1.20;;;20.50;66.40;;;;;;5051465;28;20056;-74
2022/09/10 00:18:53;;;;;;;1.70;1.30;;;20.50;66.40;;;;;;5054297;28;20442;-74
2022/09/10 00:21:20;;;;;;;2.45;1.45;;;20.50;66.40;;;;;;5052523;28;20051;-74
2022/09/10 00:23:47;;;;;;;1.52;1.35;;;20.50;66.40;;;;;;5052798;28;20045;-74
2022/09/10 00:26:18;;;;;;;1.83;1.27;;;20.40;66.30;;;;;;5052094;28;20063;-74
2022/09/10 00:28:44;;;;;;;1.77;1.20;;;20.50;66.40;;;;;;5052892;28;20052;-73
2022/09/10 00:31:13;;;;;;;1.27;1.10;;;20.40;66.30;;;;;;5053561;28;20075;-74
2022/09/10 00:33:40;;;;;;;2.22;1.40;;;20.40;66.30;;;;;;5052610;28;20049;-74
2022/09/10 00:36:13;;;;;;;2.00;1.30;;;20.40;66.30;;;;;;5052675;28;20056;-73
2022/09/10 00:38:40;;;;;;;1.80;1.30;;;20.40;66.30;;;;;;5052631;28;20053;-74
2022/09/10 00:41:07;;;;;;;2.05;1.35;;;20.40;66.30;;;;;;5052148;28;20049;-72
2022/09/10 00:43:54;;;;;;;1.35;1.23;;;20.40;66.30;;;;;;5052360;28;20088;-74
2022/09/10 00:46:35;;;;;;;2.45;1.38;;;20.40;66.20;;;;;;5052234;28;20055;-74
2022/09/10 00:49:03;;;;;;;3.45;1.35;;;20.40;66.30;;;;;;5053567;28;20045;-74
2022/09/10 00:51:31;;;;;;;2.95;1.35;;;20.40;66.30;;;;;;5051808;28;20128;-73
2022/09/10 00:53:58;;;;;;;1.38;1.17;;;20.40;66.30;;;;;;5053280;28;20382;-74
2022/09/10 00:56:25;;;;;;;1.70;1.58;;;20.40;66.30;;;;;;5052113;28;20059;-74
2022/09/10 00:58:52;;;;;;;1.38;1.10;;;20.40;66.30;;;;;;5052353;28;20059;-73
2022/09/10 01:01:18;;;;;;;1.30;1.20;;;20.40;66.30;;;;;;5052095;28;20049;-74
2022/09/10 01:03:46;;;;;;;1.67;1.38;;;20.40;66.30;;;;;;5052034;28;20433;-74
2022/09/10 01:06:13;;;;;;;1.95;1.20;;;20.40;66.30;;;;;;5068479;28;20053;-73
2022/09/10 01:08:40;;;;;;;1.70;1.10;;;20.40;66.30;;;;;;5051584;28;20063;-74
2022/09/10 01:11:15;;;;;;;2.00;1.38;;;20.40;66.20;;;;;;5051713;28;20052;-74
2022/09/10 01:13:48;;;;;;;1.80;1.50;;;20.40;66.20;;;;;;5053211;28;20057;-73
2022/09/10 01:16:18;;;;;;;1.50;1.27;;;20.40;66.20;;;;;;5051892;28;20148;-74
2022/09/10 01:18:51;;;;;;;1.85;1.33;;;20.30;66.20;;;;;;5051684;28;20051;-74
2022/09/10 01:21:23;;;;;;;1.75;1.27;;;20.40;66.20;;;;;;5051481;28;20093;-74
2022/09/10 01:24:18;;;;;;;1.95;1.38;;;20.40;66.20;;;;;;5052474;28;20064;-74
2022/09/10 01:27:01;;;;;;;2.47;1.45;;;20.40;66.10;;;;;;5051534;28;20057;-74
2022/09/10 01:29:30;;;;;;;2.05;1.30;;;20.30;66.20;;;;;;5051275;28;20053;-74
2022/09/10 01:32:00;;;;;;;1.60;1.40;;;20.40;66.30;;;;;;5051236;28;20053;-74
2022/09/10 01:34:29;;;;;;;1.50;1.20;;;20.30;66.20;;;;;;5051585;28;20059;-73
2022/09/10 01:36:59;;;;;;;1.20;1.10;;;20.40;66.30;;;;;;5051604;28;20059;-74
2022/09/10 01:39:26;;;;;;;1.88;1.40;;;20.30;66.20;;;;;;5051352;28;20055;-74
2022/09/10 01:41:53;;;;;;;1.58;1.33;;;20.40;66.30;;;;;;5051868;28;20140;-74
2022/09/10 01:44:41;;;;;;;1.98;1.40;;;20.30;66.20;;;;;;5052485;28;20435;-74
2022/09/10 01:47:13;;;;;;;1.73;1.30;;;20.30;66.10;;;;;;5051072;28;20048;-74
2022/09/10 01:49:41;;;;;;;1.40;1.30;;;20.30;66.30;;;;;;5051224;28;20056;-74
2022/09/10 01:52:15;;;;;;;1.60;1.35;;;20.30;66.30;;;;;;5050500;28;20055;-74
2022/09/10 01:54:47;;;;;;;1.45;1.25;;;20.30;66.20;;;;;;5050809;28;20076;-74
2022/09/10 01:57:19;;;;;;;1.58;1.35;;;20.30;66.30;;;;;;5052357;28;20509;-74
2022/09/10 01:59:50;;;;;;;1.33;1.15;;;20.30;66.30;;;;;;5051241;28;20063;-74
2022/09/10 02:02:20;;;;;;;2.20;1.40;;;20.30;66.30;;;;;;5050844;28;20053;-74
2022/09/10 02:04:49;;;;;;;2.03;1.40;;;20.30;66.20;;;;;;5050660;28;20140;-74
2022/09/10 02:07:15;;;;;;;1.50;1.40;;;20.30;66.20;;;;;;5050502;28;20102;-74
2022/09/10 02:09:44;;;;;;;2.15;1.38;;;20.30;66.20;;;;;;5051587;28;20045;-72
2022/09/10 02:12:17;;;;;;;1.80;1.20;;;20.30;66.20;;;;;;5050387;28;20060;-74
2022/09/10 02:14:45;;;;;;;2.10;1.42;;;20.30;66.20;;;;;;5051551;28;20051;-74
2022/09/10 02:17:14;;;;;;;1.60;1.50;;;20.30;66.20;;;;;;5050718;28;20057;-74
2022/09/10 02:19:41;;;;;;;2.22;1.48;;;20.30;66.20;;;;;;5052091;28;20380;-74
2022/09/10 02:22:09;;;;;;;1.65;1.40;;;20.30;66.20;;;;;;5050658;28;20077;-74
2022/09/10 02:24:36;;;;;;;2.03;1.55;;;20.30;66.20;;;;;;5050484;28;20057;-73
2022/09/10 02:27:04;;;;;;;2.08;1.60;;;20.30;66.20;;;;;;5050923;28;20063;-74
2022/09/10 02:29:30;;;;;;;1.70;1.40;;;20.30;66.20;;;;;;5050924;28;20059;-74
2022/09/10 02:31:57;;;;;;;1.48;1.27;;;20.30;66.20;;;;;;5050413;28;20059;-74
2022/09/10 02:34:25;;;;;;;2.55;1.63;;;20.30;66.20;;;;;;5051006;28;20064;-73
2022/09/10 02:36:52;;;;;;;1.70;1.27;;;20.30;66.20;;;;;;5049532;28;20041;-73
2022/09/10 02:39:19;;;;;;;1.60;1.42;;;20.30;66.20;;;;;;5049252;28;20453;-74
2022/09/10 02:41:46;;;;;;;1.40;1.30;;;20.30;66.20;;;;;;5049901;28;20048;-74
2022/09/10 02:44:13;;;;;;;2.30;1.30;;;20.30;66.20;;;;;;5047322;28;20137;-74
2022/09/10 02:46:40;;;;;;;2.10;1.50;;;20.30;66.20;;;;;;5051113;28;20051;-74
2022/09/10 02:49:08;;;;;;;1.67;1.40;;;20.30;66.20;;;;;;5050456;28;20516;-74
2022/09/10 02:51:37;;;;;;;1.50;1.40;;;20.30;66.20;;;;;;5067173;28;20048;-73
2022/09/10 02:54:04;;;;;;;1.60;1.40;;;20.30;66.20;;;;;;5050995;28;20064;-75
2022/09/10 02:56:31;;;;;;;2.13;1.60;;;20.30;66.20;;;;;;5066602;28;20053;-74
2022/09/10 02:58:58;;;;;;;1.50;1.40;;;20.30;66.20;;;;;;5050445;28;20059;-75
2022/09/10 03:01:24;;;;;;;3.35;1.60;;;20.30;66.20;;;;;;5050145;28;20673;-75
2022/09/10 03:03:53;;;;;;;1.85;1.50;;;20.30;66.20;;;;;;5050222;28;20056;-74
2022/09/10 03:06:20;;;;;;;2.13;1.30;;;20.30;66.20;;;;;;5050081;28;20157;-75
2022/09/10 03:08:48;;;;;;;1.70;1.40;;;20.20;66.20;;;;;;5049831;28;20126;-72
2022/09/10 03:11:15;;;;;;;1.80;1.30;;;20.30;66.20;;;;;;5049730;28;20061;-72
2022/09/10 03:13:42;;;;;;;1.90;1.33;;;20.20;66.20;;;;;;5050369;28;20063;-72
2022/09/10 03:16:09;;;;;;;1.65;1.50;;;20.20;66.20;;;;;;5050307;28;20060;-74
2022/09/10 03:18:36;;;;;;;1.60;1.40;;;20.20;66.20;;;;;;5050111;28;20057;-73
2022/09/10 03:21:09;;;;;;;1.60;1.33;;;20.20;66.20;;;;;;5050112;28;20056;-72
2022/09/10 03:23:36;;;;;;;1.90;1.50;;;20.20;66.20;;;;;;5050196;28;20071;-73
2022/09/10 03:26:05;;;;;;;1.75;1.42;;;20.20;66.20;;;;;;5050153;28;20136;-72
2022/09/10 03:28:31;;;;;;;2.22;1.45;;;20.20;66.20;;;;;;5066856;28;20148;-72
2022/09/10 03:30:58;;;;;;;1.70;1.40;;;20.20;66.20;;;;;;5049769;28;20489;-72
2022/09/10 03:33:25;;;;;;;2.00;1.40;;;20.20;66.20;;;;;;5050097;28;20139;-72
2022/09/10 03:35:53;;;;;;;1.33;1.23;;;22.10;67.20;;;;;;5049864;28;20482;-73
2022/09/10 03:38:20;;;;;;;1.83;1.40;;;20.20;66.20;;;;;;5051092;28;20581;-72
2022/09/10 03:40:46;;;;;;;2.17;1.58;;;20.20;66.20;;;;;;5049868;28;20053;-72
2022/09/10 03:43:14;;;;;;;2.20;1.55;;;20.20;66.20;;;;;;5049689;28;20113;-73
2022/09/10 03:45:41;;;;;;;1.50;1.40;;;20.20;66.20;;;;;;5049834;28;20049;-72
2022/09/10 03:48:08;;;;;;;2.33;1.40;;;20.20;66.20;;;;;;5050058;28;20048;-72
2022/09/10 03:50:34;;;;;;;3.72;1.40;;;20.20;66.20;;;;;;5050980;28;20391;-73
2022/09/10 03:53:02;;;;;;;2.20;1.50;;;20.20;66.20;;;;;;5052773;28;20064;-72
2022/09/10 03:55:29;;;;;;;1.55;1.40;;;20.20;66.20;;;;;;5054717;28;20110;-72
2022/09/10 03:57:57;;;;;;;1.70;1.52;;;20.20;66.20;;;;;;5054605;28;20438;-74
2022/09/10 04:00:25;;;;;;;1.75;1.48;;;20.20;66.20;;;;;;5053185;28;20083;-72
2022/09/10 04:02:52;;;;;;;1.50;1.40;;;20.20;66.20;;;;;;5053370;28;20056;-74
2022/09/10 04:05:19;;;;;;;1.83;1.45;;;20.20;66.20;;;;;;5054274;28;20132;-72
2022/09/10 04:07:46;;;;;;;1.70;1.40;;;20.20;66.20;;;;;;5053159;28;20048;-72
2022/09/10 04:10:13;;;;;;;1.58;1.30;;;20.20;66.20;;;;;;5054309;28;20565;-72
2022/09/10 04:12:40;;;;;;;1.67;1.48;;;20.20;66.20;;;;;;5053779;28;20084;-72
2022/09/10 04:15:08;;;;;;;1.77;1.40;;;20.20;66.20;;;;;;5052967;28;20055;-72
2022/09/10 04:17:36;;;;;;;2.33;1.50;;;20.20;66.20;;;;;;5053040;28;20631;-73
2022/09/10 04:20:03;;;;;;;2.10;1.50;;;20.20;66.20;;;;;;5052401;28;20088;-73
2022/09/10 04:22:30;;;;;;;2.22;1.48;;;20.20;66.20;;;;;;5069453;28;20064;-73
2022/09/10 04:24:56;;;;;;;1.88;1.40;;;20.20;66.20;;;;;;5054033;28;20409;-73
2022/09/10 04:27:25;;;;;;;1.83;1.52;;;20.20;66.20;;;;;;5052624;28;20068;-73
2022/09/10 04:29:52;;;;;;;1.90;1.40;;;20.10;66.20;;;;;;5053874;28;20091;-73
2022/09/10 04:32:18;;;;;;;2.22;1.60;;;20.10;66.20;;;;;;5052642;28;20486;-73
2022/09/10 04:34:46;;;;;;;1.92;1.40;;;20.20;66.20;;;;;;5052538;28;20052;-73
2022/09/10 04:37:13;;;;;;;1.77;1.30;;;20.20;66.20;;;;;;5052590;28;20063;-72
2022/09/10 04:39:42;;;;;;;2.80;1.80;;;20.20;66.20;;;;;;5052789;28;20072;-73
2022/09/10 04:42:09;;;;;;;1.80;1.38;;;20.10;66.20;;;;;;5052557;28;20473;-73
2022/09/10 04:44:36;;;;;;;2.17;1.50;;;20.20;66.20;;;;;;5052340;28;20053;-72
2022/09/10 04:47:02;;;;;;;1.55;1.30;;;20.10;66.20;;;;;;5052379;28;20060;-72
2022/09/10 04:49:29;;;;;;;1.70;1.52;;;20.10;66.20;;;;;;5053304;28;20075;-72
2022/09/10 04:51:57;;;;;;;2.08;1.70;;;20.10;66.20;;;;;;5052333;28;20041;-73
2022/09/10 04:54:24;;;;;;;2.03;1.60;;;20.10;66.20;;;;;;5052531;28;20540;-73
2022/09/10 04:56:51;;;;;;;1.73;1.50;;;20.10;66.20;;;;;;5053485;28;20052;-72
2022/09/10 04:59:18;;;;;;;2.50;1.83;;;20.10;66.20;;;;;;5053214;28;20128;-72
2022/09/10 05:01:44;;;;;;;1.88;1.60;;;21.70;67.00;;;;;;5051249;28;20053;-72
2022/09/10 05:04:11;;;;;;;1.80;1.58;;;20.10;66.20;;;;;;5052298;28;20067;-71
2022/09/10 05:06:38;;;;;;;2.22;1.70;;;20.10;66.20;;;;;;5052924;28;20071;-71
2022/09/10 05:09:06;;;;;;;2.20;1.67;;;20.10;66.20;;;;;;5052096;28;20508;-72
2022/09/10 05:11:32;;;;;;;2.55;1.63;;;20.10;66.20;;;;;;5052958;28;20056;-72
2022/09/10 05:13:59;;;;;;;2.05;1.50;;;20.10;66.20;;;;;;5053159;28;20059;-72
2022/09/10 05:16:26;;;;;;;4.28;1.90;;;20.10;66.20;;;;;;5051966;28;20508;-73
2022/09/10 05:18:53;;;;;;;2.47;1.63;;;20.10;66.20;;;;;;5052858;28;20056;-73
2022/09/10 05:21:19;;;;;;;2.58;1.80;;;20.10;66.20;;;;;;5051421;28;20045;-73
2022/09/10 05:23:46;;;;;;;2.10;1.60;;;20.10;66.20;;;;;;5051465;28;20061;-74
2022/09/10 05:26:14;;;;;;;2.40;1.70;;;20.10;66.20;;;;;;5052765;28;20052;-74
2022/09/10 05:28:42;;;;;;;1.98;1.58;;;20.10;66.20;;;;;;5051763;28;20057;-73
2022/09/10 05:31:09;;;;;;;2.50;1.55;;;20.10;66.20;;;;;;5051481;28;20529;-74
2022/09/10 05:33:38;;;;;;;3.72;1.77;;;20.10;66.20;;;;;;5051206;28;20048;-73
2022/09/10 05:36:07;;;;;;;1.88;1.50;;;20.00;66.20;;;;;;5052710;28;20049;-73
2022/09/10 05:38:34;;;;;;;2.30;1.58;;;20.10;66.20;;;;;;5067968;28;20171;-74
2022/09/10 05:41:01;;;;;;;2.35;1.77;;;20.10;66.20;;;;;;5050864;28;20053;-74
2022/09/10 05:43:29;;;;;;;2.10;1.80;;;20.00;66.20;;;;;;5051088;28;20374;-73
2022/09/10 05:45:56;;;;;;;2.22;1.60;;;20.00;66.20;;;;;;5051471;28;20056;-73
2022/09/10 05:48:23;;;;;;;2.00;1.80;;;20.10;66.20;;;;;;5052292;28;20051;-73
2022/09/10 05:50:52;;;;;;;2.22;1.67;;;20.10;66.20;;;;;;5051132;28;20538;-72
2022/09/10 05:53:19;;;;;;;1.92;1.73;;;20.00;66.20;;;;;;5051969;28;20048;-74
2022/09/10 05:55:45;;;;;;;1.90;1.58;;;20.10;66.20;;;;;;5052082;28;20053;-74
2022/09/10 05:58:12;;;;;;;2.38;1.80;;;20.10;66.20;;;;;;5051186;28;20052;-74
2022/09/10 06:00:42;;;;;;;2.47;1.50;;;20.10;66.20;;;;;;5050631;28;20053;-74
2022/09/10 06:03:09;;;;;;;2.40;1.60;;;20.10;66.20;;;;;;5051178;28;20128;-73
2022/09/10 06:05:35;;;;;;;2.45;1.90;;;20.10;66.20;;;;;;5052086;28;20048;-74
2022/09/10 06:08:03;;;;;;;2.25;1.70;;;20.00;66.10;;;;;;5050644;28;20079;-73
2022/09/10 06:10:31;;;;;;;1.92;1.40;;;20.00;66.10;;;;;;5050835;28;20059;-73
2022/09/10 06:12:58;;;;;;;1.90;1.60;;;20.00;66.10;;;;;;5050730;28;20506;-74
2022/09/10 06:15:24;;;;;;;2.10;1.50;;;20.10;66.20;;;;;;5052156;28;20055;-74
2022/09/10 06:17:55;;;;;;;2.67;1.60;;;20.10;67.90;;;;;;5050916;28;20059;-74
2022/09/10 06:20:22;;;;;;;1.85;1.50;;;20.10;66.20;;;;;;5050569;28;20494;-74
2022/09/10 06:22:49;;;;;;;2.10;1.60;;;20.10;66.20;;;;;;5051624;28;20052;-73
2022/09/10 06:25:15;;;;;;;2.00;1.70;;;20.10;66.20;;;;;;5051789;28;20056;-74
2022/09/10 06:27:43;;;;;;;2.55;1.40;;;20.10;66.10;;;;;;5067473;28;20067;-74
2022/09/10 06:30:10;;;;;;;1.63;1.50;;;20.10;66.10;;;;;;5050633;28;20064;-73
2022/09/10 06:32:38;;;;;;;2.15;1.50;;;20.10;66.10;;;;;;5067152;28;20049;-73
2022/09/10 06:35:06;;;;;;;1.55;1.30;;;20.00;66.00;;;;;;5050810;28;20060;-73
2022/09/10 06:37:33;;;;;;;1.73;1.30;;;20.10;66.10;;;;;;5051529;28;20053;-73
2022/09/10 06:40:00;;;;;;;2.17;1.60;;;20.10;66.10;;;;;;5050394;28;20139;-73
2022/09/10 06:42:27;;;;;;;1.95;1.50;;;20.10;66.10;;;;;;5050658;28;20045;-73
2022/09/10 06:44:54;;;;;;;1.85;1.50;;;20.10;66.10;;;;;;5051442;28;20044;-73
2022/09/10 06:47:20;;;;;;;2.45;1.65;;;20.00;66.00;;;;;;5049442;28;20520;-73
2022/09/10 06:49:47;;;;;;;1.67;1.40;;;20.10;66.10;;;;;;5050106;28;20053;-72
2022/09/10 06:52:15;;;;;;;1.85;1.60;;;20.10;66.10;;;;;;5050282;28;20049;-74
2022/09/10 06:54:42;;;;;;;2.53;1.52;;;20.10;66.00;;;;;;5051375;28;20049;-73
2022/09/10 06:57:09;;;;;;;1.50;1.38;;;20.10;66.00;;;;;;5050183;28;20136;-71
2022/09/10 06:59:35;;;;;;;1.92;1.65;;;20.10;66.00;;;;;;5051595;28;20585;-73
2022/09/10 07:02:02;;;;;;;1.58;1.40;;;20.10;66.10;;;;;;5051468;28;20051;-72
2022/09/10 07:04:29;;;;;;;1.60;1.45;;;20.10;66.10;;;;;;5051347;28;20051;-72
2022/09/10 07:06:58;;;;;;;2.67;1.73;;;20.10;66.10;;;;;;5051424;28;20139;-73
2022/09/10 07:09:26;;;;;;;5.30;1.80;;;20.10;66.10;;;;;;5050625;28;20057;-73
2022/09/10 07:11:53;;;;;;;3.13;1.92;;;20.10;66.10;;;;;;5049401;28;20391;-73
2022/09/10 07:14:20;;;;;;;4.20;1.80;;;20.10;66.20;;;;;;5051422;28;20061;-73
2022/09/10 07:16:49;;;;;;;6.07;2.05;;;20.10;66.20;;;;;;5050412;28;20057;-73
2022/09/10 07:19:16;;;;;;;4.72;1.90;;;20.10;66.20;;;;;;5050268;28;20084;-73
2022/09/10 07:21:43;;;;;;;1.95;1.60;;;20.10;66.20;;;;;;5051218;28;20110;-73
2022/09/10 07:24:10;;;;;;;3.17;2.03;;;20.10;66.20;;;;;;5050062;28;20052;-73
2022/09/10 07:26:39;;;;;;;2.00;1.50;;;20.10;66.20;;;;;;5052431;28;20143;-73
2022/09/10 07:29:06;;;;;;;20.35;2.30;;;20.00;66.20;;;;;;5053883;28;20061;-73
2022/09/10 07:31:34;;;;;;;2.25;1.60;;;20.10;66.20;;;;;;5053555;28;20052;-73
2022/09/10 07:34:01;;;;;;;2.45;1.70;;;20.10;66.20;;;;;;5052807;28;20055;-73
2022/09/10 07:36:28;;;;;;;4.15;1.63;;;20.10;66.20;;;;;;5050781;28;20049;-72
2022/09/10 07:38:56;;;;;;;8.30;2.10;;;20.10;66.20;;;;;;5053553;28;20053;-72
2022/09/10 07:41:23;;;;;;;2.40;1.70;;;20.10;66.20;;;;;;5054516;28;20482;-72
2022/09/10 07:43:54;;;;;;;5.00;3.03;;;20.10;66.20;;;;;;5054972;28;20063;-72
2022/09/10 07:46:21;;;;;;;3.92;2.33;;;20.00;66.20;;;;;;5054823;28;20044;-72
2022/09/10 07:48:48;;;;;;;4.32;2.05;;;20.10;66.30;;;;;;5054738;28;20052;-72
2022/09/10 07:51:18;;;;;;;3.47;2.25;;;20.00;66.20;;;;;;5053692;28;20061;-71
2022/09/10 07:53:44;;;;;;;5.47;2.10;;;20.00;66.20;;;;;;5053110;28;20141;-71
2022/09/10 07:56:11;;;;;;;3.38;2.20;;;20.00;66.20;;;;;;5050094;28;20103;-72
2022/09/10 07:58:39;;;;;;;4.97;2.50;;;20.10;66.20;;;;;;5052721;28;20052;-72
2022/09/10 08:01:10;;;;;;;3.20;2.25;;;20.10;66.30;;;;;;5052707;28;20053;-72
2022/09/10 08:03:37;;;;;;;4.18;2.42;;;20.00;66.30;;;;;;5053435;28;20056;-71
2022/09/10 08:06:04;;;;;;;4.50;2.75;;;20.10;66.30;;;;;;5053185;28;20049;-72
2022/09/10 08:08:31;;;;;;;3.28;2.20;;;20.10;66.30;;;;;;5053049;28;20106;-72
2022/09/10 08:11:04;;;;;;;2.35;2.15;;;20.10;66.30;;;;;;5053862;28;20049;-72
2022/09/10 08:13:31;;;;;;;4.22;2.10;;;20.10;66.20;;;;;;5049946;28;20045;-72
2022/09/10 08:15:58;;;;;;;4.25;2.38;;;20.10;66.30;;;;;;5052630;28;20064;-71
2022/09/10 08:18:26;;;;;;;4.70;2.42;;;20.10;66.30;;;;;;5052363;28;20053;-71
2022/09/10 08:20:54;;;;;;;3.00;1.90;;;20.10;66.30;;;;;;5053346;28;20489;-71
2022/09/10 08:23:21;;;;;;;4.82;2.10;;;20.10;66.20;;;;;;5052945;28;20060;-75
2022/09/10 08:25:50;;;;;;;3.10;2.20;;;20.10;66.20;;;;;;5053981;28;20057;-73
2022/09/10 08:28:20;;;;;;;3.40;2.50;;;20.10;66.20;;;;;;5052567;28;20678;-74
2022/09/10 08:30:56;;;;;;;3.30;2.00;;;20.10;66.20;;;;;;5052514;28;20068;-74
2022/09/10 08:33:23;;;;;;;3.88;2.30;;;20.20;66.20;;;;;;5052967;28;20049;-74
2022/09/10 08:35:55;;;;;;;6.13;2.40;;;20.10;66.20;;;;;;5052786;28;20248;-72
2022/09/10 08:38:23;;;;;;;5.50;2.30;;;20.20;66.30;;;;;;5052514;28;20691;-71
2022/09/10 08:40:50;;;;;;;10.27;2.50;;;20.10;66.30;;;;;;5052075;28;20056;-71
2022/09/10 08:43:17;;;;;;;9.38;2.92;;;20.20;66.50;;;;;;5052806;28;20074;-72
2022/09/10 08:45:44;;;;;;;7.55;2.70;;;20.10;66.60;;;;;;5054012;28;20066;-72
2022/09/10 08:48:15;;;;;;;4.93;2.53;;;20.20;66.70;;;;;;5052262;28;20485;-72
2022/09/10 08:50:46;;;;;;;5.05;2.58;;;19.90;68.40;;;;;;5051454;28;20057;-74
2022/09/10 08:53:21;;;;;;;6.53;2.33;;;20.20;66.80;;;;;;5051616;28;20065;-72
2022/09/10 08:55:48;;;;;;;7.03;2.50;;;20.20;66.80;;;;;;5053406;28;20055;-73
2022/09/10 08:58:17;;;;;;;4.00;2.60;;;20.20;66.90;;;;;;5051490;28;20075;-72
2022/09/10 09:00:44;;;;;;;7.50;2.40;;;20.20;66.80;;;;;;5052154;28;20052;-74
2022/09/10 09:03:14;;;;;;;5.28;2.45;;;20.20;66.80;;;;;;5052269;28;20056;-74
2022/09/10 09:05:45;;;;;;;5.53;2.40;;;20.20;66.80;;;;;;5052386;28;20057;-73
2022/09/10 09:08:12;;;;;;;5.47;2.17;;;20.20;66.90;;;;;;5052178;28;20053;-73
2022/09/10 09:10:44;;;;;;;6.32;2.33;;;20.20;66.80;;;;;;5052062;28;20477;-72
2022/09/10 09:13:21;;;;;;;4.32;2.30;;;20.20;66.80;;;;;;5032292;28;20427;-73
2022/09/10 09:15:50;;;;;;;4.45;2.25;;;20.20;66.80;;;;;;5033381;28;20057;-73
2022/09/10 09:18:20;;;;;;;5.15;2.10;;;20.20;66.80;;;;;;5033143;28;20051;-73
2022/09/10 09:20:47;;;;;;;22.38;2.50;;;20.20;66.80;;;;;;5032047;28;20064;-72
2022/09/10 09:23:20;;;;;;;3.05;1.77;;;20.20;66.80;;;;;;5032126;28;20483;-72
2022/09/10 09:25:49;;;;;;;3.72;2.28;;;20.20;66.70;;;;;;5035211;28;20059;-72
2022/09/10 09:28:20;;;;;;;5.13;2.08;;;20.20;66.70;;;;;;5051994;28;20497;-73
2022/09/10 09:30:48;;;;;;;5.07;2.03;;;20.20;66.70;;;;;;5051770;28;20075;-74
2022/09/10 09:33:15;;;;;;;3.67;2.10;;;20.20;66.70;;;;;;5051622;28;20049;-74
2022/09/10 09:35:44;;;;;;;4.28;2.20;;;20.20;66.70;;;;;;5034956;28;20071;-74
2022/09/10 09:38:17;;;;;;;3.17;1.90;;;20.20;66.70;;;;;;5051830;28;20061;-72
2022/09/10 09:40:47;;;;;;;5.72;2.15;;;20.20;66.70;;;;;;5050994;28;20070;-74
2022/09/10 09:43:22;;;;;;;4.97;1.95;;;20.20;66.70;;;;;;5051432;28;20068;-72
2022/09/10 09:45:49;;;;;;;2.67;1.98;;;20.20;66.60;;;;;;5051657;28;20052;-72
2022/09/10 09:48:17;;;;;;;2.90;1.88;;;20.20;66.60;;;;;;5052134;28;20553;-72
2022/09/10 09:50:45;;;;;;;2.20;1.70;;;20.20;66.60;;;;;;5051369;28;20061;-72
2022/09/10 09:53:15;;;;;;;3.00;1.90;;;20.30;66.60;;;;;;5051441;28;20053;-72
2022/09/10 09:55:43;;;;;;;5.47;2.20;;;20.30;66.50;;;;;;5050933;28;20510;-73
2022/09/10 09:58:33;;;;;;;3.45;1.80;;;20.30;66.50;;;;;;5050886;28;20494;-72
2022/09/10 10:01:14;;;;;;;2.70;1.80;;;20.30;66.30;;;;;;5050670;28;20053;-72
2022/09/10 10:03:50;;;;;;;2.72;1.67;;;20.30;66.30;;;;;;5051395;28;20075;-74
2022/09/10 10:06:18;;;;;;;4.03;2.00;;;20.30;66.20;;;;;;5035100;28;20061;-74
2022/09/10 10:08:46;;;;;;;3.10;1.90;;;20.30;66.20;;;;;;5052136;28;20076;-72
2022/09/10 10:11:13;;;;;;;4.43;1.90;;;20.30;66.10;;;;;;5052178;28;20134;-72
2022/09/10 10:13:42;;;;;;;2.80;1.55;;;20.30;66.00;;;;;;5052365;28;20449;-72
2022/09/10 10:16:16;;;;;;;4.43;2.10;;;20.40;66.00;;;;;;5050705;28;20607;-72
2022/09/10 10:18:43;;;;;;;2.90;2.17;;;20.30;66.00;;;;;;5052334;28;20056;-72
2022/09/10 10:21:17;;;;;;;2.65;1.70;;;20.30;66.00;;;;;;5050778;28;20052;-73
2022/09/10 10:23:44;;;;;;;3.72;1.60;;;20.30;66.00;;;;;;5050931;28;20509;-72
2022/09/10 10:26:29;;;;;;;2.63;1.73;;;20.30;66.00;;;;;;5052058;28;20398;-74
2022/09/10 10:28:59;;;;;;;2.72;1.55;;;20.40;65.90;;;;;;5050599;28;20053;-72
2022/09/10 10:31:34;;;;;;;2.55;1.58;;;20.30;65.90;;;;;;5050764;28;20457;-72
2022/09/10 10:34:05;;;;;;;2.60;1.88;;;20.30;65.90;;;;;;5050666;28;20041;-72
2022/09/10 10:36:37;;;;;;;2.90;1.70;;;20.30;65.90;;;;;;5051009;28;20057;-72
2022/09/10 10:39:05;;;;;;;2.72;1.70;;;20.40;65.90;;;;;;5050369;28;20409;-73
2022/09/10 10:41:45;;;;;;;2.22;1.67;;;20.40;65.90;;;;;;5051706;28;20055;-72
2022/09/10 10:44:23;;;;;;;3.60;1.63;;;20.40;65.80;;;;;;5050477;28;20052;-71
2022/09/10 10:46:54;;;;;;;2.53;1.73;;;20.40;65.90;;;;;;5050553;28;20064;-71
2022/09/10 10:49:25;;;;;;;2.75;1.70;;;20.40;65.90;;;;;;5051797;28;20050;-72
2022/09/10 10:51:55;;;;;;;2.75;1.70;;;20.40;66.00;;;;;;5049888;28;20102;-73
2022/09/10 10:54:41;;;;;;;2.75;1.80;;;20.30;66.00;;;;;;5050348;28;20056;-73
2022/09/10 10:57:13;;;;;;;2.88;1.80;;;20.40;65.90;;;;;;5050591;28;20445;-74
2022/09/10 10:59:51;;;;;;;2.55;1.77;;;20.40;66.00;;;;;;5051751;28;20053;-72
2022/09/10 11:02:22;;;;;;;2.97;1.90;;;20.40;66.00;;;;;;5054156;28;20060;-73
2022/09/10 11:04:50;;;;;;;3.47;2.00;;;20.40;66.00;;;;;;5053159;28;20048;-73
2022/09/10 11:07:18;;;;;;;2.42;1.90;;;20.40;66.00;;;;;;5054330;28;20056;-74
2022/09/10 11:09:48;;;;;;;2.53;1.90;;;20.40;66.00;;;;;;5054651;28;20052;-74
2022/09/10 11:12:16;;;;;;;3.80;2.00;;;20.40;66.10;;;;;;5054453;28;20486;-73
2022/09/10 11:14:47;;;;;;;2.60;2.00;;;20.50;66.10;;;;;;5055550;28;20049;-72
2022/09/10 11:17:17;;;;;;;2.60;2.20;;;20.50;66.10;;;;;;5054284;28;20061;-74
2022/09/10 11:19:46;;;;;;;2.80;2.10;;;20.50;66.10;;;;;;5053887;28;20056;-71
2022/09/10 11:22:14;;;;;;;3.95;2.15;;;20.50;66.10;;;;;;5055140;28;20072;-72
2022/09/10 11:24:43;;;;;;;4.75;2.30;;;20.50;66.20;;;;;;5054392;28;20634;-72
2022/09/10 11:27:11;;;;;;;2.78;2.05;;;20.50;66.20;;;;;;5054221;28;20049;-74
2022/09/10 11:29:40;;;;;;;3.63;1.85;;;20.50;66.10;;;;;;5054198;28;20079;-71
2022/09/10 11:32:13;;;;;;;3.03;1.90;;;20.60;66.20;;;;;;5054015;28;20056;-73
2022/09/10 11:34:46;;;;;;;4.82;2.13;;;20.60;66.10;;;;;;5053497;28;20608;-72
2022/09/10 11:37:14;;;;;;;3.55;2.00;;;20.60;66.10;;;;;;5054939;28;20053;-74
2022/09/10 11:39:43;;;;;;;2.65;1.83;;;20.60;66.60;;;;;;5053976;28;20060;-74
2022/09/10 11:42:13;;;;;;;2.10;1.70;;;20.60;66.10;;;;;;5053632;28;20498;-74
2022/09/10 11:44:44;;;;;;;3.15;1.90;;;20.60;66.00;;;;;;5053987;28;20045;-74
2022/09/10 11:47:15;;;;;;;3.70;1.80;;;20.70;66.10;;;;;;5054049;28;20656;-72
2022/09/10 11:49:47;;;;;;;3.75;2.00;;;20.70;66.10;;;;;;5053826;28;20057;-74
2022/09/10 11:52:14;;;;;;;2.92;1.70;;;20.70;66.10;;;;;;5052829;28;20061;-74
2022/09/10 11:54:41;;;;;;;2.92;1.80;;;20.70;66.00;;;;;;5053305;28;20057;-73
2022/09/10 11:57:11;;;;;;;3.53;1.77;;;20.70;66.00;;;;;;5053722;28;20075;-73
2022/09/10 11:59:59;;;;;;;3.88;1.88;;;20.70;65.90;;;;;;5053833;28;20087;-74
2022/09/10 12:02:51;;;;;;;2.08;1.75;;;20.70;65.90;;;;;;5047818;28;20059;-72
2022/09/10 12:05:22;;;;;;;1.83;1.60;;;20.80;66.00;;;;;;5053569;28;20055;-72
2022/09/10 12:07:53;;;;;;;3.08;1.77;;;20.70;65.90;;;;;;5069773;28;20064;-72
2022/09/10 12:10:22;;;;;;;3.30;1.73;;;20.70;65.90;;;;;;5053462;28;20053;-73
2022/09/10 12:12:49;;;;;;;2.50;1.70;;;20.70;65.90;;;;;;5054359;28;20059;-72
2022/09/10 12:15:18;;;;;;;2.28;1.70;;;20.80;65.90;;;;;;5054366;28;20048;-71
2022/09/10 12:17:48;;;;;;;2.78;1.98;;;20.80;65.90;;;;;;5054765;28;20127;-74
2022/09/10 12:20:16;;;;;;;2.35;1.88;;;20.80;65.90;;;;;;5053166;28;20143;-73
2022/09/10 12:22:43;;;;;;;2.60;1.73;;;20.80;65.80;;;;;;5052913;28;20053;-74
2022/09/10 12:25:27;;;;;;;1.88;1.63;;;20.80;65.80;;;;;;5053188;28;20500;-72
2022/09/10 12:27:55;;;;;;;1.77;1.58;;;20.80;65.70;;;;;;5054543;28;20102;-73
2022/09/10 12:30:50;;;;;;;2.47;1.80;;;20.80;65.70;;;;;;5052437;28;20052;-74
2022/09/10 12:33:56;;;;;;;5.85;2.20;;;20.90;65.70;;;;;;5054138;28;20110;-72
2022/09/10 12:37:15;;;;;;;2.45;1.70;;;20.80;65.70;;;;;;5052607;28;20064;-74
2022/09/10 12:39:42;;;;;;;1.90;1.67;;;20.90;65.80;;;;;;5053896;28;20410;-72
2022/09/10 12:42:44;;;;;;;2.90;1.88;;;20.80;65.80;;;;;;5053487;28;20048;-74
2022/09/10 12:45:10;;;;;;;1.83;1.52;;;20.90;65.70;;;;;;4995666;28;20062;-72
2022/09/10 12:47:49;;;;;;;3.17;2.30;;;23.00;66.90;;;;;;4995560;28;20058;-72
2022/09/10 12:50:36;;;;;;;2.10;1.70;;;20.90;65.80;;;;;;5024500;28;20060;-73
2022/09/10 12:53:25;;;;;;;1.83;1.60;;;20.90;65.70;;;;;;5052050;28;20409;-73
2022/09/10 12:55:58;;;;;;;2.08;1.70;;;20.80;65.70;;;;;;5053716;28;20421;-73
2022/09/10 12:58:28;;;;;;;2.10;1.67;;;20.80;65.70;;;;;;5052704;28;20055;-73